sensor_id;sensor_type;location;lat;lon;timestamp;P1;durP1;ratioP1;P2;durP2;ratioP2
52686;SDS011;38584;49.426;8.396;2023-08-01T00:01:39;16.67;;;5.38;;
52686;SDS011;38584;49.426;8.396;2023-08-01T00:04:04;12.25;;;5.00;;
52686;SDS011;38584;49.426;8.396;2023-08-01T00:06:29;15.80;;;5.60;;
52686;SDS011;38584;49.426;8.396;2023-08-01T00:08:57;16.13;;;5.47;;
52686;SDS011;38584;49.426;8.396;2023-08-01T00:11:22;17.13;;;5.32;;
52686;SDS011;38584;49.426;8.396;2023-08-01T00:13:48;15.17;;;5.23;;
52686;SDS011;38584;49.426;8.396;2023-08-01T00:16:16;14.98;;;5.30;;
52686;SDS011;38584;49.426;8.396;2023-08-01T00:18:41;15.43;;;6.03;;
52686;SDS011;38584;49.426;8.396;2023-08-01T00:21:06;17.37;;;5.57;;
52686;SDS011;38584;49.426;8.396;2023-08-01T00:23:38;18.08;;;5.57;;
52686;SDS011;38584;49.426;8.396;2023-08-01T00:26:03;13.95;;;5.25;;
52686;SDS011;38584;49.426;8.396;2023-08-01T00:28:29;12.97;;;5.43;;
52686;SDS011;38584;49.426;8.396;2023-08-01T00:31:09;13.48;;;5.18;;
52686;SDS011;38584;49.426;8.396;2023-08-01T00:33:34;15.73;;;5.47;;
52686;SDS011;38584;49.426;8.396;2023-08-01T00:36:00;17.42;;;5.53;;
52686;SDS011;38584;49.426;8.396;2023-08-01T00:38:25;14.83;;;5.77;;
52686;SDS011;38584;49.426;8.396;2023-08-01T00:40:50;16.08;;;6.00;;
52686;SDS011;38584;49.426;8.396;2023-08-01T00:43:18;12.53;;;5.13;;
52686;SDS011;38584;49.426;8.396;2023-08-01T00:45:44;14.68;;;6.10;;
52686;SDS011;38584;49.426;8.396;2023-08-01T00:48:09;15.55;;;6.03;;
52686;SDS011;38584;49.426;8.396;2023-08-01T00:50:35;23.70;;;5.72;;
52686;SDS011;38584;49.426;8.396;2023-08-01T00:53:00;16.83;;;6.37;;
52686;SDS011;38584;49.426;8.396;2023-08-01T00:55:26;14.70;;;5.82;;
52686;SDS011;38584;49.426;8.396;2023-08-01T00:57:52;17.67;;;6.60;;
52686;SDS011;38584;49.426;8.396;2023-08-01T01:00:17;15.53;;;5.77;;
52686;SDS011;38584;49.426;8.396;2023-08-01T01:02:42;15.20;;;6.13;;
52686;SDS011;38584;49.426;8.396;2023-08-01T01:05:07;16.10;;;6.10;;
52686;SDS011;38584;49.426;8.396;2023-08-01T01:07:33;15.60;;;5.97;;
52686;SDS011;38584;49.426;8.396;2023-08-01T01:09:58;16.98;;;6.75;;
52686;SDS011;38584;49.426;8.396;2023-08-01T01:12:23;16.07;;;6.37;;
52686;SDS011;38584;49.426;8.396;2023-08-01T01:14:49;14.43;;;5.97;;
52686;SDS011;38584;49.426;8.396;2023-08-01T01:17:20;16.95;;;6.05;;
52686;SDS011;38584;49.426;8.396;2023-08-01T01:19:45;17.08;;;5.55;;
52686;SDS011;38584;49.426;8.396;2023-08-01T01:22:10;16.47;;;6.23;;
52686;SDS011;38584;49.426;8.396;2023-08-01T01:24:36;20.10;;;6.07;;
52686;SDS011;38584;49.426;8.396;2023-08-01T01:27:02;19.42;;;6.47;;
52686;SDS011;38584;49.426;8.396;2023-08-01T01:29:28;14.98;;;5.95;;
52686;SDS011;38584;49.426;8.396;2023-08-01T01:31:57;15.75;;;6.38;;
52686;SDS011;38584;49.426;8.396;2023-08-01T01:34:22;14.15;;;5.82;;
52686;SDS011;38584;49.426;8.396;2023-08-01T01:36:47;14.55;;;6.00;;
52686;SDS011;38584;49.426;8.396;2023-08-01T01:39:13;15.40;;;6.03;;
52686;SDS011;38584;49.426;8.396;2023-08-01T01:41:40;19.23;;;6.78;;
52686;SDS011;38584;49.426;8.396;2023-08-01T01:44:06;16.63;;;5.70;;
52686;SDS011;38584;49.426;8.396;2023-08-01T01:46:31;19.70;;;6.30;;
52686;SDS011;38584;49.426;8.396;2023-08-01T01:48:56;18.03;;;6.20;;
52686;SDS011;38584;49.426;8.396;2023-08-01T01:51:22;13.02;;;5.50;;
52686;SDS011;38584;49.426;8.396;2023-08-01T01:53:48;15.37;;;5.23;;
52686;SDS011;38584;49.426;8.396;2023-08-01T01:56:13;13.33;;;5.37;;
52686;SDS011;38584;49.426;8.396;2023-08-01T01:58:38;14.27;;;5.40;;
52686;SDS011;38584;49.426;8.396;2023-08-01T02:01:03;13.80;;;5.37;;
52686;SDS011;38584;49.426;8.396;2023-08-01T02:03:28;13.63;;;5.30;;
52686;SDS011;38584;49.426;8.396;2023-08-01T02:05:53;18.50;;;6.20;;
52686;SDS011;38584;49.426;8.396;2023-08-01T02:08:21;16.00;;;5.65;;
52686;SDS011;38584;49.426;8.396;2023-08-01T02:10:47;12.65;;;5.15;;
52686;SDS011;38584;49.426;8.396;2023-08-01T02:13:12;19.25;;;5.43;;
52686;SDS011;38584;49.426;8.396;2023-08-01T02:15:41;16.47;;;5.43;;
52686;SDS011;38584;49.426;8.396;2023-08-01T02:18:09;14.73;;;5.43;;
52686;SDS011;38584;49.426;8.396;2023-08-01T02:20:34;16.83;;;5.65;;
52686;SDS011;38584;49.426;8.396;2023-08-01T02:22:59;14.03;;;5.73;;
52686;SDS011;38584;49.426;8.396;2023-08-01T02:25:24;15.50;;;5.67;;
52686;SDS011;38584;49.426;8.396;2023-08-01T02:27:49;17.48;;;5.55;;
52686;SDS011;38584;49.426;8.396;2023-08-01T02:30:14;13.63;;;5.28;;
52686;SDS011;38584;49.426;8.396;2023-08-01T02:32:40;17.07;;;6.13;;
52686;SDS011;38584;49.426;8.396;2023-08-01T02:35:08;15.33;;;6.30;;
52686;SDS011;38584;49.426;8.396;2023-08-01T02:37:33;16.52;;;6.43;;
52686;SDS011;38584;49.426;8.396;2023-08-01T02:39:58;17.30;;;6.33;;
52686;SDS011;38584;49.426;8.396;2023-08-01T02:42:23;18.93;;;6.10;;
52686;SDS011;38584;49.426;8.396;2023-08-01T02:44:49;15.93;;;6.10;;
52686;SDS011;38584;49.426;8.396;2023-08-01T02:47:14;13.63;;;5.50;;
52686;SDS011;38584;49.426;8.396;2023-08-01T02:49:39;16.40;;;6.00;;
52686;SDS011;38584;49.426;8.396;2023-08-01T02:52:10;16.55;;;5.72;;
52686;SDS011;38584;49.426;8.396;2023-08-01T02:54:35;17.00;;;6.50;;
52686;SDS011;38584;49.426;8.396;2023-08-01T02:57:00;17.00;;;6.83;;
52686;SDS011;38584;49.426;8.396;2023-08-01T02:59:26;18.60;;;7.23;;
52686;SDS011;38584;49.426;8.396;2023-08-01T03:01:51;19.30;;;6.20;;
52686;SDS011;38584;49.426;8.396;2023-08-01T03:04:16;19.13;;;6.53;;
52686;SDS011;38584;49.426;8.396;2023-08-01T03:06:41;16.23;;;6.00;;
52686;SDS011;38584;49.426;8.396;2023-08-01T03:09:09;14.73;;;5.93;;
52686;SDS011;38584;49.426;8.396;2023-08-01T03:11:37;16.90;;;5.90;;
52686;SDS011;38584;49.426;8.396;2023-08-01T03:14:02;16.60;;;6.47;;
52686;SDS011;38584;49.426;8.396;2023-08-01T03:16:29;14.00;;;6.05;;
52686;SDS011;38584;49.426;8.396;2023-08-01T03:18:54;16.80;;;6.45;;
52686;SDS011;38584;49.426;8.396;2023-08-01T03:21:19;14.70;;;5.40;;
52686;SDS011;38584;49.426;8.396;2023-08-01T03:23:51;14.70;;;5.80;;
52686;SDS011;38584;49.426;8.396;2023-08-01T03:26:16;23.95;;;6.68;;
52686;SDS011;38584;49.426;8.396;2023-08-01T03:28:43;16.00;;;5.80;;
52686;SDS011;38584;49.426;8.396;2023-08-01T03:31:11;19.00;;;6.50;;
52686;SDS011;38584;49.426;8.396;2023-08-01T03:33:36;17.80;;;6.65;;
52686;SDS011;38584;49.426;8.396;2023-08-01T03:36:02;19.42;;;6.63;;
52686;SDS011;38584;49.426;8.396;2023-08-01T03:38:34;16.42;;;7.35;;
52686;SDS011;38584;49.426;8.396;2023-08-01T03:41:00;17.02;;;6.47;;
52686;SDS011;38584;49.426;8.396;2023-08-01T03:43:25;16.05;;;5.80;;
52686;SDS011;38584;49.426;8.396;2023-08-01T03:45:51;17.90;;;6.90;;
52686;SDS011;38584;49.426;8.396;2023-08-01T03:48:16;14.07;;;6.35;;
52686;SDS011;38584;49.426;8.396;2023-08-01T03:50:41;18.27;;;6.75;;
52686;SDS011;38584;49.426;8.396;2023-08-01T03:53:06;18.47;;;6.73;;
52686;SDS011;38584;49.426;8.396;2023-08-01T03:55:32;16.83;;;6.60;;
52686;SDS011;38584;49.426;8.396;2023-08-01T03:57:57;17.20;;;6.73;;
52686;SDS011;38584;49.426;8.396;2023-08-01T04:00:22;15.73;;;6.63;;
52686;SDS011;38584;49.426;8.396;2023-08-01T04:02:47;16.15;;;6.78;;
52686;SDS011;38584;49.426;8.396;2023-08-01T04:05:13;14.80;;;6.43;;
52686;SDS011;38584;49.426;8.396;2023-08-01T04:07:38;22.03;;;6.97;;
52686;SDS011;38584;49.426;8.396;2023-08-01T04:10:03;20.10;;;6.75;;
52686;SDS011;38584;49.426;8.396;2023-08-01T04:12:32;19.40;;;6.53;;
52686;SDS011;38584;49.426;8.396;2023-08-01T04:14:57;15.90;;;6.40;;
52686;SDS011;38584;49.426;8.396;2023-08-01T04:17:22;21.42;;;7.07;;
52686;SDS011;38584;49.426;8.396;2023-08-01T04:19:48;17.53;;;6.10;;
52686;SDS011;38584;49.426;8.396;2023-08-01T04:22:13;21.00;;;7.07;;
52686;SDS011;38584;49.426;8.396;2023-08-01T04:24:38;16.93;;;6.53;;
52686;SDS011;38584;49.426;8.396;2023-08-01T04:27:03;14.80;;;5.97;;
52686;SDS011;38584;49.426;8.396;2023-08-01T04:29:28;18.48;;;7.03;;
52686;SDS011;38584;49.426;8.396;2023-08-01T04:31:54;17.30;;;6.47;;
52686;SDS011;38584;49.426;8.396;2023-08-01T04:34:19;13.73;;;6.47;;
52686;SDS011;38584;49.426;8.396;2023-08-01T04:36:44;16.97;;;6.07;;
52686;SDS011;38584;49.426;8.396;2023-08-01T04:39:09;14.40;;;6.13;;
52686;SDS011;38584;49.426;8.396;2023-08-01T04:41:34;16.55;;;5.78;;
52686;SDS011;38584;49.426;8.396;2023-08-01T04:44:00;18.80;;;6.25;;
52686;SDS011;38584;49.426;8.396;2023-08-01T04:46:28;21.02;;;5.97;;
52686;SDS011;38584;49.426;8.396;2023-08-01T04:48:56;20.80;;;5.60;;
52686;SDS011;38584;49.426;8.396;2023-08-01T04:51:21;36.10;;;6.43;;
52686;SDS011;38584;49.426;8.396;2023-08-01T04:53:46;17.87;;;6.30;;
52686;SDS011;38584;49.426;8.396;2023-08-01T04:56:11;14.77;;;5.72;;
52686;SDS011;38584;49.426;8.396;2023-08-01T04:58:39;17.20;;;6.57;;
52686;SDS011;38584;49.426;8.396;2023-08-01T05:01:05;17.58;;;5.93;;
52686;SDS011;38584;49.426;8.396;2023-08-01T05:03:30;16.90;;;6.03;;
52686;SDS011;38584;49.426;8.396;2023-08-01T05:05:55;20.23;;;6.30;;
52686;SDS011;38584;49.426;8.396;2023-08-01T05:08:20;18.37;;;6.57;;
52686;SDS011;38584;49.426;8.396;2023-08-01T05:10:45;16.23;;;6.47;;
52686;SDS011;38584;49.426;8.396;2023-08-01T05:13:10;21.37;;;6.20;;
52686;SDS011;38584;49.426;8.396;2023-08-01T05:15:35;24.00;;;6.50;;
52686;SDS011;38584;49.426;8.396;2023-08-01T05:18:04;17.63;;;6.83;;
52686;SDS011;38584;49.426;8.396;2023-08-01T05:20:29;16.67;;;6.85;;
52686;SDS011;38584;49.426;8.396;2023-08-01T05:22:58;18.35;;;6.45;;
52686;SDS011;38584;49.426;8.396;2023-08-01T05:25:24;17.45;;;7.32;;
52686;SDS011;38584;49.426;8.396;2023-08-01T05:27:49;17.83;;;7.57;;
52686;SDS011;38584;49.426;8.396;2023-08-01T05:30:14;21.03;;;8.60;;
52686;SDS011;38584;49.426;8.396;2023-08-01T05:32:39;20.93;;;8.83;;
52686;SDS011;38584;49.426;8.396;2023-08-01T05:35:08;20.40;;;7.63;;
52686;SDS011;38584;49.426;8.396;2023-08-01T05:37:33;16.60;;;7.72;;
52686;SDS011;38584;49.426;8.396;2023-08-01T05:39:58;22.13;;;8.43;;
52686;SDS011;38584;49.426;8.396;2023-08-01T05:42:23;27.00;;;9.20;;
52686;SDS011;38584;49.426;8.396;2023-08-01T05:47:54;20.67;;;8.88;;
52686;SDS011;38584;49.426;8.396;2023-08-01T05:50:19;18.98;;;9.52;;
52686;SDS011;38584;49.426;8.396;2023-08-01T05:52:44;17.17;;;9.10;;
52686;SDS011;38584;49.426;8.396;2023-08-01T05:55:09;19.50;;;9.95;;
52686;SDS011;38584;49.426;8.396;2023-08-01T05:57:34;23.80;;;9.73;;
52686;SDS011;38584;49.426;8.396;2023-08-01T06:00:00;21.38;;;10.52;;
52686;SDS011;38584;49.426;8.396;2023-08-01T06:02:25;21.67;;;10.03;;
52686;SDS011;38584;49.426;8.396;2023-08-01T06:04:50;29.00;;;10.97;;
52686;SDS011;38584;49.426;8.396;2023-08-01T06:07:15;25.60;;;12.02;;
52686;SDS011;38584;49.426;8.396;2023-08-01T06:09:43;19.10;;;9.70;;
52686;SDS011;38584;49.426;8.396;2023-08-01T06:12:14;22.85;;;10.65;;
52686;SDS011;38584;49.426;8.396;2023-08-01T06:14:39;21.90;;;9.70;;
52686;SDS011;38584;49.426;8.396;2023-08-01T06:17:07;19.48;;;9.52;;
52686;SDS011;38584;49.426;8.396;2023-08-01T06:19:32;19.80;;;8.70;;
52686;SDS011;38584;49.426;8.396;2023-08-01T06:21:58;16.57;;;8.37;;
52686;SDS011;38584;49.426;8.396;2023-08-01T06:24:23;19.30;;;8.30;;
52686;SDS011;38584;49.426;8.396;2023-08-01T06:26:51;15.83;;;7.43;;
52686;SDS011;38584;49.426;8.396;2023-08-01T06:29:16;17.00;;;7.32;;
52686;SDS011;38584;49.426;8.396;2023-08-01T06:31:47;18.23;;;6.57;;
52686;SDS011;38584;49.426;8.396;2023-08-01T06:34:13;16.00;;;6.88;;
52686;SDS011;38584;49.426;8.396;2023-08-01T06:36:38;19.13;;;7.10;;
52686;SDS011;38584;49.426;8.396;2023-08-01T06:39:03;19.70;;;7.17;;
52686;SDS011;38584;49.426;8.396;2023-08-01T06:41:28;17.67;;;6.87;;
52686;SDS011;38584;49.426;8.396;2023-08-01T06:43:53;16.92;;;7.22;;
52686;SDS011;38584;49.426;8.396;2023-08-01T06:46:19;16.03;;;6.70;;
52686;SDS011;38584;49.426;8.396;2023-08-01T06:48:50;18.63;;;6.88;;
52686;SDS011;38584;49.426;8.396;2023-08-01T06:51:15;16.73;;;6.78;;
52686;SDS011;38584;49.426;8.396;2023-08-01T06:53:40;18.13;;;6.93;;
52686;SDS011;38584;49.426;8.396;2023-08-01T06:56:05;17.87;;;6.63;;
52686;SDS011;38584;49.426;8.396;2023-08-01T06:58:30;18.67;;;7.60;;
52686;SDS011;38584;49.426;8.396;2023-08-01T07:00:55;14.77;;;6.13;;
52686;SDS011;38584;49.426;8.396;2023-08-01T07:03:21;15.70;;;6.43;;
52686;SDS011;38584;49.426;8.396;2023-08-01T07:05:46;15.67;;;5.97;;
52686;SDS011;38584;49.426;8.396;2023-08-01T07:08:14;15.90;;;6.03;;
52686;SDS011;38584;49.426;8.396;2023-08-01T07:10:39;15.50;;;6.63;;
52686;SDS011;38584;49.426;8.396;2023-08-01T07:13:04;17.07;;;6.07;;
52686;SDS011;38584;49.426;8.396;2023-08-01T07:15:30;16.30;;;6.50;;
52686;SDS011;38584;49.426;8.396;2023-08-01T07:17:55;13.50;;;5.70;;
52686;SDS011;38584;49.426;8.396;2023-08-01T07:20:21;12.97;;;5.23;;
52686;SDS011;38584;49.426;8.396;2023-08-01T07:22:52;12.57;;;5.82;;
52686;SDS011;38584;49.426;8.396;2023-08-01T07:25:17;14.68;;;5.38;;
52686;SDS011;38584;49.426;8.396;2023-08-01T07:27:47;14.98;;;5.75;;
52686;SDS011;38584;49.426;8.396;2023-08-01T07:30:12;15.45;;;4.93;;
52686;SDS011;38584;49.426;8.396;2023-08-01T07:32:37;11.27;;;4.50;;
52686;SDS011;38584;49.426;8.396;2023-08-01T07:35:06;12.63;;;5.07;;
52686;SDS011;38584;49.426;8.396;2023-08-01T07:37:33;11.43;;;4.38;;
52686;SDS011;38584;49.426;8.396;2023-08-01T07:39:58;13.52;;;4.70;;
52686;SDS011;38584;49.426;8.396;2023-08-01T07:42:26;14.17;;;4.33;;
52686;SDS011;38584;49.426;8.396;2023-08-01T07:44:51;10.60;;;4.53;;
52686;SDS011;38584;49.426;8.396;2023-08-01T07:47:16;12.87;;;4.13;;
52686;SDS011;38584;49.426;8.396;2023-08-01T07:49:41;10.50;;;4.18;;
52686;SDS011;38584;49.426;8.396;2023-08-01T07:52:07;9.63;;;3.50;;
52686;SDS011;38584;49.426;8.396;2023-08-01T07:54:32;11.07;;;4.07;;
52686;SDS011;38584;49.426;8.396;2023-08-01T07:56:57;11.83;;;3.60;;
52686;SDS011;38584;49.426;8.396;2023-08-01T07:59:22;10.63;;;4.20;;
52686;SDS011;38584;49.426;8.396;2023-08-01T08:01:51;11.53;;;4.30;;
52686;SDS011;38584;49.426;8.396;2023-08-01T08:04:17;12.70;;;4.03;;
52686;SDS011;38584;49.426;8.396;2023-08-01T08:06:42;12.60;;;3.63;;
52686;SDS011;38584;49.426;8.396;2023-08-01T08:09:08;10.80;;;3.67;;
52686;SDS011;38584;49.426;8.396;2023-08-01T08:11:33;9.77;;;3.80;;
52686;SDS011;38584;49.426;8.396;2023-08-01T08:13:58;12.43;;;3.78;;
52686;SDS011;38584;49.426;8.396;2023-08-01T08:16:23;10.50;;;3.47;;
52686;SDS011;38584;49.426;8.396;2023-08-01T08:18:49;11.15;;;3.47;;
52686;SDS011;38584;49.426;8.396;2023-08-01T08:21:14;7.47;;;2.60;;
52686;SDS011;38584;49.426;8.396;2023-08-01T08:23:42;5.95;;;2.17;;
52686;SDS011;38584;49.426;8.396;2023-08-01T08:26:13;3.80;;;1.83;;
52686;SDS011;38584;49.426;8.396;2023-08-01T08:28:41;3.15;;;1.30;;
52686;SDS011;38584;49.426;8.396;2023-08-01T08:31:07;2.75;;;1.20;;
52686;SDS011;38584;49.426;8.396;2023-08-01T08:33:32;7.50;;;1.45;;
52686;SDS011;38584;49.426;8.396;2023-08-01T08:35:58;2.83;;;1.40;;
52686;SDS011;38584;49.426;8.396;2023-08-01T08:38:26;3.90;;;1.30;;
52686;SDS011;38584;49.426;8.396;2023-08-01T08:43:35;5.78;;;1.60;;
52686;SDS011;38584;49.426;8.396;2023-08-01T08:46:01;4.50;;;1.38;;
52686;SDS011;38584;49.426;8.396;2023-08-01T08:48:26;3.97;;;1.30;;
52686;SDS011;38584;49.426;8.396;2023-08-01T08:50:54;3.42;;;1.20;;
52686;SDS011;38584;49.426;8.396;2023-08-01T08:53:21;3.03;;;1.08;;
52686;SDS011;38584;49.426;8.396;2023-08-01T08:55:47;3.70;;;1.27;;
52686;SDS011;38584;49.426;8.396;2023-08-01T08:58:12;5.03;;;1.50;;
52686;SDS011;38584;49.426;8.396;2023-08-01T09:00:43;2.70;;;1.57;;
52686;SDS011;38584;49.426;8.396;2023-08-01T09:03:09;3.92;;;1.50;;
52686;SDS011;38584;49.426;8.396;2023-08-01T09:05:44;3.53;;;1.33;;
52686;SDS011;38584;49.426;8.396;2023-08-01T09:08:13;4.20;;;1.40;;
52686;SDS011;38584;49.426;8.396;2023-08-01T09:10:40;3.63;;;1.30;;
52686;SDS011;38584;49.426;8.396;2023-08-01T09:13:07;3.47;;;1.27;;
52686;SDS011;38584;49.426;8.396;2023-08-01T09:15:32;3.17;;;1.50;;
52686;SDS011;38584;49.426;8.396;2023-08-01T09:17:57;7.83;;;1.37;;
52686;SDS011;38584;49.426;8.396;2023-08-01T09:20:28;4.50;;;1.52;;
52686;SDS011;38584;49.426;8.396;2023-08-01T09:22:53;3.70;;;1.42;;
52686;SDS011;38584;49.426;8.396;2023-08-01T09:25:18;3.60;;;1.25;;
52686;SDS011;38584;49.426;8.396;2023-08-01T09:27:44;2.37;;;1.30;;
52686;SDS011;38584;49.426;8.396;2023-08-01T09:30:18;2.13;;;1.13;;
52686;SDS011;38584;49.426;8.396;2023-08-01T09:32:53;1.52;;;0.95;;
52686;SDS011;38584;49.426;8.396;2023-08-01T09:35:18;4.68;;;1.20;;
52686;SDS011;38584;49.426;8.396;2023-08-01T09:37:43;3.43;;;1.10;;
52686;SDS011;38584;49.426;8.396;2023-08-01T09:40:11;2.30;;;1.13;;
52686;SDS011;38584;49.426;8.396;2023-08-01T09:42:40;2.70;;;1.20;;
52686;SDS011;38584;49.426;8.396;2023-08-01T09:45:12;1.00;;;0.93;;
52686;SDS011;38584;49.426;8.396;2023-08-01T09:47:38;3.50;;;1.20;;
52686;SDS011;38584;49.426;8.396;2023-08-01T09:50:04;4.40;;;1.40;;
52686;SDS011;38584;49.426;8.396;2023-08-01T09:52:29;3.65;;;1.60;;
52686;SDS011;38584;49.426;8.396;2023-08-01T09:54:54;4.18;;;1.45;;
52686;SDS011;38584;49.426;8.396;2023-08-01T09:57:20;3.57;;;1.27;;
52686;SDS011;38584;49.426;8.396;2023-08-01T09:59:45;3.92;;;1.70;;
52686;SDS011;38584;49.426;8.396;2023-08-01T10:02:14;3.10;;;1.20;;
52686;SDS011;38584;49.426;8.396;2023-08-01T10:04:40;3.85;;;1.30;;
52686;SDS011;38584;49.426;8.396;2023-08-01T10:07:08;10.32;;;1.52;;
52686;SDS011;38584;49.426;8.396;2023-08-01T10:09:33;3.00;;;1.33;;
52686;SDS011;38584;49.426;8.396;2023-08-01T10:12:00;2.55;;;1.42;;
52686;SDS011;38584;49.426;8.396;2023-08-01T10:14:26;3.60;;;1.58;;
52686;SDS011;38584;49.426;8.396;2023-08-01T10:16:51;6.60;;;1.40;;
52686;SDS011;38584;49.426;8.396;2023-08-01T10:19:20;4.90;;;1.48;;
52686;SDS011;38584;49.426;8.396;2023-08-01T10:21:45;4.57;;;1.40;;
52686;SDS011;38584;49.426;8.396;2023-08-01T10:24:14;4.90;;;1.40;;
52686;SDS011;38584;49.426;8.396;2023-08-01T10:26:46;4.30;;;1.70;;
52686;SDS011;38584;49.426;8.396;2023-08-01T10:29:14;5.25;;;1.80;;
52686;SDS011;38584;49.426;8.396;2023-08-01T10:31:49;6.78;;;1.63;;
52686;SDS011;38584;49.426;8.396;2023-08-01T10:34:17;5.97;;;1.80;;
52686;SDS011;38584;49.426;8.396;2023-08-01T10:36:52;5.00;;;1.80;;
52686;SDS011;38584;49.426;8.396;2023-08-01T10:39:20;5.15;;;1.80;;
52686;SDS011;38584;49.426;8.396;2023-08-01T10:41:46;4.63;;;1.58;;
52686;SDS011;38584;49.426;8.396;2023-08-01T10:44:21;5.72;;;1.63;;
52686;SDS011;38584;49.426;8.396;2023-08-01T10:46:50;3.67;;;1.60;;
52686;SDS011;38584;49.426;8.396;2023-08-01T10:49:16;5.03;;;1.60;;
52686;SDS011;38584;49.426;8.396;2023-08-01T10:51:41;4.93;;;1.80;;
52686;SDS011;38584;49.426;8.396;2023-08-01T10:54:17;4.88;;;1.80;;
52686;SDS011;38584;49.426;8.396;2023-08-01T10:56:49;5.40;;;1.77;;
52686;SDS011;38584;49.426;8.396;2023-08-01T10:59:14;5.32;;;1.70;;
52686;SDS011;38584;49.426;8.396;2023-08-01T11:01:52;4.03;;;1.70;;
52686;SDS011;38584;49.426;8.396;2023-08-01T11:04:24;4.35;;;1.67;;
52686;SDS011;38584;49.426;8.396;2023-08-01T11:06:53;4.35;;;1.70;;
52686;SDS011;38584;49.426;8.396;2023-08-01T11:09:23;6.72;;;1.77;;
52686;SDS011;38584;49.426;8.396;2023-08-01T11:12:07;6.00;;;1.83;;
52686;SDS011;38584;49.426;8.396;2023-08-01T11:14:32;4.97;;;1.42;;
52686;SDS011;38584;49.426;8.396;2023-08-01T11:16:57;4.63;;;1.77;;
52686;SDS011;38584;49.426;8.396;2023-08-01T11:19:26;6.78;;;1.77;;
52686;SDS011;38584;49.426;8.396;2023-08-01T11:21:52;4.32;;;1.60;;
52686;SDS011;38584;49.426;8.396;2023-08-01T11:24:18;6.05;;;1.55;;
52686;SDS011;38584;49.426;8.396;2023-08-01T11:26:44;4.90;;;1.60;;
52686;SDS011;38584;49.426;8.396;2023-08-01T11:29:10;4.95;;;1.65;;
52686;SDS011;38584;49.426;8.396;2023-08-01T11:31:51;4.85;;;1.60;;
52686;SDS011;38584;49.426;8.396;2023-08-01T11:34:17;6.28;;;1.67;;
52686;SDS011;38584;49.426;8.396;2023-08-01T11:36:45;4.93;;;1.70;;
52686;SDS011;38584;49.426;8.396;2023-08-01T11:39:11;5.30;;;1.65;;
52686;SDS011;38584;49.426;8.396;2023-08-01T11:41:37;6.05;;;1.73;;
52686;SDS011;38584;49.426;8.396;2023-08-01T11:44:02;5.33;;;1.60;;
52686;SDS011;38584;49.426;8.396;2023-08-01T11:46:30;7.00;;;1.60;;
52686;SDS011;38584;49.426;8.396;2023-08-01T11:48:55;6.25;;;2.05;;
52686;SDS011;38584;49.426;8.396;2023-08-01T11:51:20;7.33;;;1.90;;
52686;SDS011;38584;49.426;8.396;2023-08-01T11:53:46;5.63;;;1.70;;
52686;SDS011;38584;49.426;8.396;2023-08-01T11:56:30;7.47;;;1.80;;
52686;SDS011;38584;49.426;8.396;2023-08-01T11:58:56;7.15;;;1.70;;
52686;SDS011;38584;49.426;8.396;2023-08-01T12:01:21;5.50;;;1.80;;
52686;SDS011;38584;49.426;8.396;2023-08-01T12:03:48;7.10;;;1.67;;
52686;SDS011;38584;49.426;8.396;2023-08-01T12:06:14;6.03;;;1.95;;
52686;SDS011;38584;49.426;8.396;2023-08-01T12:08:39;5.05;;;1.80;;
52686;SDS011;38584;49.426;8.396;2023-08-01T12:11:04;5.32;;;1.80;;
52686;SDS011;38584;49.426;8.396;2023-08-01T12:13:30;9.93;;;1.80;;
52686;SDS011;38584;49.426;8.396;2023-08-01T12:15:56;9.35;;;2.05;;
52686;SDS011;38584;49.426;8.396;2023-08-01T12:18:25;5.20;;;2.00;;
52686;SDS011;38584;49.426;8.396;2023-08-01T12:20:53;4.82;;;1.95;;
52686;SDS011;38584;49.426;8.396;2023-08-01T12:23:25;7.72;;;2.55;;
52686;SDS011;38584;49.426;8.396;2023-08-01T12:25:50;6.05;;;2.00;;
52686;SDS011;38584;49.426;8.396;2023-08-01T12:28:15;5.57;;;2.10;;
52686;SDS011;38584;49.426;8.396;2023-08-01T12:30:43;9.03;;;2.00;;
52686;SDS011;38584;49.426;8.396;2023-08-01T12:33:08;6.28;;;2.20;;
52686;SDS011;38584;49.426;8.396;2023-08-01T12:35:34;5.85;;;1.98;;
52686;SDS011;38584;49.426;8.396;2023-08-01T12:37:59;4.50;;;1.63;;
52686;SDS011;38584;49.426;8.396;2023-08-01T12:40:24;5.40;;;1.70;;
52686;SDS011;38584;49.426;8.396;2023-08-01T12:42:49;6.63;;;1.80;;
52686;SDS011;38584;49.426;8.396;2023-08-01T12:45:15;4.80;;;1.70;;
52686;SDS011;38584;49.426;8.396;2023-08-01T12:47:40;8.33;;;2.17;;
52686;SDS011;38584;49.426;8.396;2023-08-01T12:50:08;6.70;;;2.27;;
52686;SDS011;38584;49.426;8.396;2023-08-01T12:52:33;5.18;;;2.05;;
52686;SDS011;38584;49.426;8.396;2023-08-01T12:54:58;8.87;;;2.27;;
52686;SDS011;38584;49.426;8.396;2023-08-01T12:57:23;7.47;;;1.90;;
52686;SDS011;38584;49.426;8.396;2023-08-01T12:59:52;4.07;;;1.85;;
52686;SDS011;38584;49.426;8.396;2023-08-01T13:02:17;6.07;;;1.92;;
52686;SDS011;38584;49.426;8.396;2023-08-01T13:04:42;9.33;;;2.10;;
52686;SDS011;38584;49.426;8.396;2023-08-01T13:07:07;7.43;;;2.20;;
52686;SDS011;38584;49.426;8.396;2023-08-01T13:09:32;9.15;;;1.98;;
52686;SDS011;38584;49.426;8.396;2023-08-01T13:11:58;6.60;;;1.80;;
52686;SDS011;38584;49.426;8.396;2023-08-01T13:14:27;10.20;;;2.15;;
52686;SDS011;38584;49.426;8.396;2023-08-01T13:16:53;7.45;;;2.00;;
52686;SDS011;38584;49.426;8.396;2023-08-01T13:19:21;6.00;;;1.80;;
52686;SDS011;38584;49.426;8.396;2023-08-01T13:21:52;8.00;;;2.00;;
52686;SDS011;38584;49.426;8.396;2023-08-01T13:24:23;4.97;;;1.80;;
52686;SDS011;38584;49.426;8.396;2023-08-01T13:26:48;5.97;;;2.13;;
52686;SDS011;38584;49.426;8.396;2023-08-01T13:29:14;6.53;;;2.00;;
52686;SDS011;38584;49.426;8.396;2023-08-01T13:31:39;6.20;;;2.00;;
52686;SDS011;38584;49.426;8.396;2023-08-01T13:34:05;7.90;;;2.20;;
52686;SDS011;38584;49.426;8.396;2023-08-01T13:36:30;7.80;;;1.97;;
52686;SDS011;38584;49.426;8.396;2023-08-01T13:38:58;12.97;;;2.03;;
52686;SDS011;38584;49.426;8.396;2023-08-01T13:41:23;5.90;;;1.80;;
52686;SDS011;38584;49.426;8.396;2023-08-01T13:43:48;13.30;;;2.58;;
52686;SDS011;38584;49.426;8.396;2023-08-01T13:46:17;8.20;;;2.33;;
52686;SDS011;38584;49.426;8.396;2023-08-01T13:48:45;6.60;;;2.20;;
52686;SDS011;38584;49.426;8.396;2023-08-01T13:51:14;5.68;;;1.88;;
52686;SDS011;38584;49.426;8.396;2023-08-01T13:53:39;8.52;;;1.90;;
52686;SDS011;38584;49.426;8.396;2023-08-01T13:56:12;7.97;;;2.17;;
52686;SDS011;38584;49.426;8.396;2023-08-01T13:58:37;10.00;;;2.20;;
52686;SDS011;38584;49.426;8.396;2023-08-01T14:01:03;6.50;;;2.20;;
52686;SDS011;38584;49.426;8.396;2023-08-01T14:03:32;6.75;;;1.80;;
52686;SDS011;38584;49.426;8.396;2023-08-01T14:06:06;6.90;;;2.08;;
52686;SDS011;38584;49.426;8.396;2023-08-01T14:08:32;6.10;;;2.03;;
52686;SDS011;38584;49.426;8.396;2023-08-01T14:10:57;6.13;;;1.90;;
52686;SDS011;38584;49.426;8.396;2023-08-01T14:13:25;6.70;;;2.10;;
52686;SDS011;38584;49.426;8.396;2023-08-01T14:15:53;9.10;;;2.10;;
52686;SDS011;38584;49.426;8.396;2023-08-01T14:18:18;5.15;;;1.90;;
52686;SDS011;38584;49.426;8.396;2023-08-01T14:20:44;5.82;;;1.90;;
52686;SDS011;38584;49.426;8.396;2023-08-01T14:23:09;8.80;;;1.90;;
52686;SDS011;38584;49.426;8.396;2023-08-01T14:25:34;7.33;;;1.90;;
52686;SDS011;38584;49.426;8.396;2023-08-01T14:27:59;7.25;;;1.90;;
52686;SDS011;38584;49.426;8.396;2023-08-01T14:30:24;6.00;;;2.00;;
52686;SDS011;38584;49.426;8.396;2023-08-01T14:32:50;8.25;;;1.70;;
52686;SDS011;38584;49.426;8.396;2023-08-01T14:35:15;5.88;;;1.70;;
52686;SDS011;38584;49.426;8.396;2023-08-01T14:37:40;5.57;;;1.53;;
52686;SDS011;38584;49.426;8.396;2023-08-01T14:40:10;5.22;;;1.98;;
52686;SDS011;38584;49.426;8.396;2023-08-01T14:42:41;8.60;;;1.80;;